Time;durP1;ratioP1;P1;durP2;ratioP2;P2;SDS_P1;SDS_P2;PMS_P1;PMS_P2;Temp;Humidity;BMP_temperature;BMP_pressure;BME280_temperature;BME280_humidity;BME280_pressure;Samples;Min_cycle;Max_cycle;Signal;HPM_P1;HPM_P2
2023/06/10 00:00:41;;;;;;;6.28;5.28;;;;;;;19.26;100.00;99844.59;5100224;28;20031;-74
2023/06/10 00:03:07;;;;;;;5.63;5.03;;;;;;;19.27;100.00;99854.66;5085204;28;20049;-74
2023/06/10 00:05:34;;;;;;;8.77;5.10;;;;;;;19.25;100.00;99859.00;5106654;28;20062;-73
2023/06/10 00:08:01;;;;;;;8.40;5.78;;;;;;;19.23;100.00;99859.41;5089296;28;20107;-73
2023/06/10 00:10:27;;;;;;;5.80;4.90;;;;;;;19.21;100.00;99864.56;5107259;28;20391;-73
2023/06/10 00:12:52;;;;;;;6.13;5.18;;;;;;;19.18;100.00;99856.88;5120319;28;20023;-73
2023/06/10 00:15:18;;;;;;;5.85;5.00;;;;;;;19.18;100.00;99845.59;5081874;28;20111;-73
2023/06/10 00:17:43;;;;;;;6.50;5.07;;;;;;;19.21;100.00;99844.88;5081659;28;20039;-73
2023/06/10 00:20:11;;;;;;;6.22;5.63;;;;;;;19.21;100.00;99844.88;5082324;28;20130;-73
2023/06/10 00:22:39;;;;;;;7.45;5.15;;;;;;;19.21;100.00;99842.06;5083997;28;20034;-74
2023/06/10 00:25:05;;;;;;;6.57;5.50;;;;;;;19.19;100.00;99835.97;5100098;28;20403;-74
2023/06/10 00:27:34;;;;;;;6.40;5.43;;;;;;;19.17;100.00;99829.91;5099991;28;20054;-74
2023/06/10 00:30:04;;;;;;;7.38;5.72;;;;;;;19.19;100.00;99830.34;5120301;28;20082;-74
2023/06/10 00:32:30;;;;;;;8.13;4.82;;;;;;;19.12;100.00;99814.13;5111361;28;20024;-74
2023/06/10 00:34:56;;;;;;;7.25;5.65;;;;;;;19.15;100.00;99818.19;5111227;28;20024;-74
2023/06/10 00:37:22;;;;;;;10.65;5.47;;;;;;;19.12;100.00;99822.56;5101800;28;20032;-74
2023/06/10 00:39:47;;;;;;;6.20;5.50;;;;;;;19.11;100.00;99806.88;5092748;28;20032;-74
2023/06/10 00:42:13;;;;;;;8.00;5.90;;;;;;;19.10;100.00;99815.66;5081610;28;20039;-74
2023/06/10 00:44:38;;;;;;;7.50;5.78;;;;;;;19.10;100.00;99821.31;5081541;28;20035;-73
2023/06/10 00:47:04;;;;;;;7.78;5.13;;;;;;;19.09;100.00;99831.75;5098940;28;20048;-74
2023/06/10 00:49:30;;;;;;;7.53;5.38;;;;;;;19.03;100.00;99824.78;5065151;28;20358;-73
2023/06/10 00:51:55;;;;;;;8.70;5.60;;;;;;;19.03;100.00;99827.59;5099402;28;20031;-73
2023/06/10 00:54:21;;;;;;;7.03;5.80;;;;;;;19.03;100.00;99826.75;5081612;28;20035;-74
2023/06/10 00:56:47;;;;;;;9.40;7.55;;;;;;;19.03;100.00;99832.38;5099308;28;20080;-73
2023/06/10 00:59:14;;;;;;;12.82;9.10;;;;;;;18.98;100.00;99842.75;5064845;28;20032;-73
2023/06/10 01:01:39;;;;;;;10.70;6.97;;;;;;;18.98;100.00;99847.56;5080991;28;20567;-74
2023/06/10 01:04:05;;;;;;;7.32;6.10;;;;;;;19.04;100.00;99851.72;5101855;28;20086;-73
2023/06/10 01:06:49;;;;;;;9.52;6.35;;;;;;;19.00;100.00;99850.00;5112881;28;20034;-74
2023/06/10 01:09:46;;;;;;;8.98;6.68;;;;;;;18.98;100.00;99847.56;5098886;28;20036;-73
2023/06/10 01:12:35;;;;;;;9.18;5.80;;;;;;;18.98;100.00;99847.56;5100181;28;20054;-73
2023/06/10 01:15:03;;;;;;;8.35;6.32;;;;;;;19.00;100.00;99861.25;5077732;28;20373;-73
2023/06/10 01:17:29;;;;;;;8.18;6.03;;;;;;;19.00;100.00;99864.91;5107458;28;20031;-73
2023/06/10 01:19:58;;;;;;;7.68;6.25;;;;;;;18.97;100.00;99865.63;5098950;28;20039;-73
2023/06/10 01:22:25;;;;;;;8.25;6.10;;;;;;;18.94;100.00;99867.19;5093241;28;20689;-73
2023/06/10 01:24:51;;;;;;;9.02;6.10;;;;;;;18.95;100.00;99860.38;5099868;28;20035;-73
2023/06/10 01:27:16;;;;;;;9.55;6.00;;;;;;;18.95;100.00;99868.81;5080730;28;20028;-73
2023/06/10 01:29:46;;;;;;;9.13;5.65;;;;;;;18.95;100.00;99862.38;5099081;28;20077;-73
2023/06/10 01:32:23;;;;;;;6.25;5.65;;;;;;;18.95;100.00;99871.63;5092594;28;20027;-73
2023/06/10 01:34:49;;;;;;;8.82;6.97;;;;;;;18.93;100.00;99857.09;5071749;28;20125;-73
2023/06/10 01:37:17;;;;;;;9.18;5.70;;;;;;;18.91;100.00;99850.22;5070619;28;20024;-73
2023/06/10 01:39:43;;;;;;;6.97;5.93;;;;;;;18.91;100.00;99848.22;5080452;28;20395;-74
2023/06/10 01:42:09;;;;;;;7.63;5.18;;;;;;;18.91;100.00;99850.22;5065361;28;20032;-73
2023/06/10 01:44:35;;;;;;;9.70;5.70;;;;;;;18.92;100.00;99846.22;5092267;28;20107;-73
2023/06/10 01:47:01;;;;;;;7.30;5.35;;;;;;;18.89;100.00;99842.16;5097276;28;20109;-73
2023/06/10 01:49:28;;;;;;;8.35;6.00;;;;;;;18.88;100.00;99842.50;5098472;28;20032;-73
2023/06/10 01:51:54;;;;;;;8.60;6.10;;;;;;;18.89;100.00;99839.34;5080578;28;20035;-73
2023/06/10 01:54:19;;;;;;;7.45;6.03;;;;;;;18.90;100.00;99818.44;5098394;28;20028;-73
2023/06/10 01:56:44;;;;;;;6.82;6.07;;;;;;;18.89;100.00;99816.84;5098314;28;20055;-73
2023/06/10 01:59:10;;;;;;;8.35;6.30;;;;;;;18.88;100.00;99809.56;5098330;28;20050;-73
2023/06/10 02:01:35;;;;;;;7.00;5.88;;;;;;;18.89;100.00;99805.59;5097774;28;20181;-73
2023/06/10 02:04:01;;;;;;;8.55;6.38;;;;;;;18.88;100.00;99806.75;5102013;28;20028;-73
2023/06/10 02:06:26;;;;;;;7.40;6.22;;;;;;;18.88;100.00;99798.31;5111556;28;20089;-73
2023/06/10 02:08:52;;;;;;;7.80;5.65;;;;;;;18.86;100.00;99792.25;5098223;28;20035;-73
2023/06/10 02:11:17;;;;;;;8.02;5.80;;;;;;;18.84;100.00;99802.25;5107754;28;20027;-73
2023/06/10 02:13:43;;;;;;;7.97;6.20;;;;;;;18.83;100.00;99795.78;5111332;28;20024;-73
2023/06/10 02:16:12;;;;;;;8.20;5.97;;;;;;;18.82;100.00;99798.97;5097372;28;20032;-73
2023/06/10 02:18:40;;;;;;;10.70;6.50;;;;;;;18.84;100.00;99797.44;5097948;28;20024;-73
2023/06/10 02:21:06;;;;;;;6.07;5.47;;;;;;;18.82;100.00;99798.97;5098908;28;20028;-73
2023/06/10 02:23:32;;;;;;;7.68;5.95;;;;;;;18.81;100.00;99792.53;5110156;28;20115;-73
2023/06/10 02:25:57;;;;;;;8.27;5.57;;;;;;;18.80;100.00;99792.88;5079404;28;20078;-73
2023/06/10 02:28:23;;;;;;;6.72;5.25;;;;;;;18.76;100.00;99798.44;5105400;28;20032;-73
2023/06/10 02:30:48;;;;;;;11.48;5.93;;;;;;;18.79;100.00;99786.44;5116049;28;20040;-73
2023/06/10 02:33:14;;;;;;;5.85;5.22;;;;;;;18.77;100.00;99790.81;5111371;28;20059;-73
2023/06/10 02:35:40;;;;;;;7.45;5.63;;;;;;;18.74;100.00;99786.72;5102822;28;20032;-73
2023/06/10 02:38:05;;;;;;;8.10;5.53;;;;;;;18.76;100.00;99790.00;5088086;28;20026;-73
2023/06/10 02:40:31;;;;;;;6.95;5.57;;;;;;;18.75;100.00;99799.63;5084740;28;20024;-73
2023/06/10 02:42:58;;;;;;;7.78;5.60;;;;;;;18.74;100.00;99798.78;5079547;28;20035;-73
2023/06/10 02:45:23;;;;;;;9.68;5.45;;;;;;;18.72;100.00;99809.59;5097415;28;20399;-73
2023/06/10 02:47:49;;;;;;;6.88;5.53;;;;;;;18.70;100.00;99819.56;5079113;28;20048;-73
2023/06/10 02:50:15;;;;;;;8.57;5.85;;;;;;;18.70;100.00;99822.38;5097701;28;20047;-73
2023/06/10 02:52:40;;;;;;;7.38;5.50;;;;;;;18.66;100.00;99822.28;5097585;28;20473;-73
2023/06/10 02:55:06;;;;;;;6.35;5.65;;;;;;;18.69;100.00;99826.34;5097430;28;20055;-73
2023/06/10 02:57:32;;;;;;;10.32;5.47;;;;;;;18.69;100.00;99837.59;5079256;28;20060;-73
2023/06/10 02:59:58;;;;;;;6.20;5.60;;;;;;;18.65;100.00;99833.91;5087206;28;20043;-73
2023/06/10 03:02:28;;;;;;;5.35;4.75;;;;;;;18.64;100.00;99844.34;5083435;28;20054;-73
2023/06/10 03:04:55;;;;;;;6.60;5.40;;;;;;;18.66;100.00;99841.16;5104884;28;20435;-73
2023/06/10 03:07:20;;;;;;;7.70;5.55;;;;;;;18.62;100.00;99841.06;5114058;28;20032;-73
2023/06/10 03:09:46;;;;;;;7.63;5.97;;;;;;;18.63;100.00;99836.25;5083470;28;20035;-73
2023/06/10 03:12:12;;;;;;;7.18;5.60;;;;;;;18.63;100.00;99833.44;5118731;28;20031;-73
2023/06/10 03:14:38;;;;;;;6.05;5.25;;;;;;;18.62;100.00;99838.25;5107375;28;20024;-73
2023/06/10 03:17:06;;;;;;;6.10;4.88;;;;;;;18.62;100.00;99846.69;5100829;28;20039;-73
2023/06/10 03:19:33;;;;;;;7.22;5.78;;;;;;;18.61;100.00;99839.44;5101283;28;20106;-73
2023/06/10 03:22:10;;;;;;;9.10;5.38;;;;;;;18.61;100.00;99845.06;5104925;28;20039;-73
2023/06/10 03:24:36;;;;;;;6.32;5.03;;;;;;;18.54;100.00;99834.44;5082984;28;20027;-73
2023/06/10 03:27:04;;;;;;;6.38;5.70;;;;;;;18.56;100.00;99841.72;5066463;28;20054;-73
2023/06/10 03:29:30;;;;;;;6.50;5.25;;;;;;;18.53;100.00;99838.47;5117986;28;20035;-74
2023/06/10 03:31:56;;;;;;;6.72;5.50;;;;;;;18.52;100.00;99842.44;5113505;28;20056;-73
2023/06/10 03:34:23;;;;;;;6.38;5.20;;;;;;;18.55;100.00;99843.69;5117942;28;20024;-73
2023/06/10 03:36:49;;;;;;;7.85;5.20;;;;;;;18.54;100.00;99845.69;5100950;28;20043;-73
2023/06/10 03:39:14;;;;;;;8.02;5.82;;;;;;;18.53;100.00;99846.91;5114493;28;20032;-73
2023/06/10 03:41:39;;;;;;;7.30;5.78;;;;;;;18.52;100.00;99842.44;5101179;28;20028;-73
2023/06/10 03:44:05;;;;;;;5.80;5.15;;;;;;;18.55;100.00;99838.06;5100661;28;20035;-73
2023/06/10 03:46:30;;;;;;;7.72;5.82;;;;;;;18.50;100.00;99838.38;5099913;28;20106;-73
2023/06/10 03:48:56;;;;;;;6.68;5.30;;;;;;;18.51;100.00;99837.19;5100718;28;20024;-73
2023/06/10 03:51:21;;;;;;;5.30;4.80;;;;;;;18.47;100.00;99837.09;5082684;28;20020;-73
2023/06/10 03:53:47;;;;;;;7.40;5.28;;;;;;;18.47;100.00;99837.09;5100588;28;20020;-73
2023/06/10 03:56:12;;;;;;;8.50;5.60;;;;;;;18.47;100.00;99833.44;5082753;28;20039;-73
2023/06/10 03:58:38;;;;;;;8.32;5.70;;;;;;;18.48;100.00;99830.28;5100572;28;20039;-73
2023/06/10 04:01:03;;;;;;;7.95;5.13;;;;;;;18.44;100.00;99826.59;5100147;28;20031;-73
2023/06/10 04:03:28;;;;;;;6.43;5.38;;;;;;;18.45;100.00;99824.59;5103716;28;20067;-73
2023/06/10 04:05:54;;;;;;;8.13;5.72;;;;;;;18.47;100.00;99825.84;5109859;28;20042;-73
2023/06/10 04:08:20;;;;;;;8.27;5.95;;;;;;;18.46;100.00;99829.84;5086343;28;20368;-73
2023/06/10 04:10:46;;;;;;;7.72;6.38;;;;;;;18.45;100.00;99836.66;5105019;28;20127;-73
2023/06/10 04:13:11;;;;;;;6.45;5.82;;;;;;;18.44;100.00;99839.81;5117955;28;20032;-73
2023/06/10 04:15:37;;;;;;;7.43;5.47;;;;;;;18.45;100.00;99841.47;5081846;28;20040;-73
2023/06/10 04:18:02;;;;;;;8.95;6.10;;;;;;;18.43;100.00;99844.63;5100159;28;20392;-73
2023/06/10 04:20:28;;;;;;;8.60;6.10;;;;;;;18.44;100.00;99854.72;5100134;28;20038;-73
2023/06/10 04:22:53;;;;;;;6.55;5.63;;;;;;;18.41;100.00;99851.78;5113664;28;20044;-73
2023/06/10 04:25:20;;;;;;;6.38;5.65;;;;;;;18.44;100.00;99849.09;5100076;28;20039;-73
2023/06/10 04:27:45;;;;;;;7.60;5.80;;;;;;;18.41;100.00;99849.78;5084041;28;20081;-73
2023/06/10 04:30:11;;;;;;;7.03;5.88;;;;;;;18.43;100.00;99839.00;5120423;28;20472;-73
2023/06/10 04:32:37;;;;;;;5.80;5.18;;;;;;;18.42;100.00;99843.00;5093581;28;20070;-73
2023/06/10 04:35:02;;;;;;;9.77;5.85;;;;;;;18.40;100.00;99853.78;5110792;28;20032;-73
2023/06/10 04:37:29;;;;;;;7.40;5.18;;;;;;;18.42;100.00;99856.25;5084874;28;20103;-73
2023/06/10 04:39:54;;;;;;;5.78;5.13;;;;;;;18.40;100.00;99867.03;5110042;28;20047;-73
2023/06/10 04:42:20;;;;;;;6.18;5.57;;;;;;;18.42;100.00;99871.09;5099647;28;20032;-73
2023/06/10 04:44:45;;;;;;;6.30;5.70;;;;;;;18.44;100.00;99880.00;5099587;28;20036;-73
2023/06/10 04:47:10;;;;;;;7.25;5.20;;;;;;;18.43;100.00;99875.53;5081058;28;20114;-73
2023/06/10 04:49:36;;;;;;;7.45;6.05;;;;;;;18.46;100.00;99879.63;5081546;28;20024;-73
2023/06/10 04:52:04;;;;;;;6.53;5.57;;;;;;;18.42;100.00;99885.16;5099456;28;20031;-73
2023/06/10 04:54:30;;;;;;;7.65;5.97;;;;;;;18.45;100.00;99880.81;5081955;28;20020;-73
2023/06/10 04:56:55;;;;;;;7.97;5.80;;;;;;;18.47;100.00;99887.72;5099315;28;20063;-73
2023/06/10 04:59:21;;;;;;;6.15;5.55;;;;;;;18.47;100.00;99886.88;5099161;28;20574;-73
2023/06/10 05:01:46;;;;;;;8.15;6.22;;;;;;;18.52;100.00;99890.22;5094643;28;20067;-73
2023/06/10 05:04:12;;;;;;;8.10;6.00;;;;;;;18.50;100.00;99889.78;5075491;28;20028;-73
2023/06/10 05:06:37;;;;;;;6.20;5.60;;;;;;;18.56;100.00;99893.16;5104314;28;20028;-73
2023/06/10 05:09:03;;;;;;;6.55;5.47;;;;;;;18.58;100.00;99884.34;5099184;28;20447;-73
2023/06/10 05:11:28;;;;;;;10.07;5.45;;;;;;;18.58;100.00;99885.16;5110403;28;20035;-73
2023/06/10 05:13:53;;;;;;;7.07;5.80;;;;;;;18.60;100.00;99890.41;5111057;28;20028;-73
2023/06/10 05:16:19;;;;;;;6.32;5.60;;;;;;;18.59;100.00;99895.22;5080589;28;20039;-73
2023/06/10 05:18:45;;;;;;;8.63;5.70;;;;;;;18.61;100.00;99890.06;5099059;28;20032;-73
2023/06/10 05:21:11;;;;;;;6.32;5.07;;;;;;;18.62;100.00;99890.88;5065421;28;20460;-73
2023/06/10 05:23:37;;;;;;;6.55;5.30;;;;;;;18.60;100.00;99902.47;5110142;28;20032;-73
2023/06/10 05:26:02;;;;;;;5.55;5.05;;;;;;;18.61;100.00;99898.50;5098830;28;20419;-73
2023/06/10 05:28:28;;;;;;;5.53;4.93;;;;;;;18.63;100.00;99904.56;5106981;28;20027;-73
2023/06/10 05:30:53;;;;;;;7.38;6.10;;;;;;;18.62;100.00;99896.50;5116922;28;20038;-73
2023/06/10 05:33:19;;;;;;;7.35;5.38;;;;;;;18.58;100.00;99898.41;5113167;28;20034;-73
2023/06/10 05:35:44;;;;;;;6.30;4.80;;;;;;;18.59;100.00;99908.47;5103477;28;20040;-73
2023/06/10 05:38:10;;;;;;;8.02;5.40;;;;;;;18.63;100.00;99915.00;5107191;28;20054;-73
2023/06/10 05:40:35;;;;;;;7.38;5.90;;;;;;;18.64;100.00;99920.28;5103495;28;20024;-73
2023/06/10 05:43:01;;;;;;;8.05;5.35;;;;;;;18.63;100.00;99915.81;5098517;28;20043;-73
2023/06/10 05:45:27;;;;;;;6.85;4.90;;;;;;;18.64;100.00;99911.03;5079763;28;20028;-73
2023/06/10 05:47:52;;;;;;;6.38;5.10;;;;;;;18.64;100.00;99919.47;5098265;28;20094;-73
2023/06/10 05:50:18;;;;;;;10.60;5.72;;;;;;;18.67;100.00;99918.75;5080513;28;20039;-74
2023/06/10 05:52:43;;;;;;;6.57;5.88;;;;;;;18.68;100.00;99923.16;5098538;28;20028;-74
2023/06/10 05:55:09;;;;;;;8.45;6.07;;;;;;;18.69;100.00;99927.59;5098324;28;20024;-73
2023/06/10 05:57:35;;;;;;;8.15;6.28;;;;;;;18.71;100.00;99920.44;5098250;28;20055;-73
2023/06/10 06:00:00;;;;;;;8.00;6.13;;;;;;;18.72;100.00;99930.53;5098189;28;20028;-73
2023/06/10 06:02:26;;;;;;;22.27;13.70;;;;;;;18.77;100.00;99925.81;5079755;28;20020;-73
2023/06/10 06:04:51;;;;;;;10.82;7.00;;;;;;;18.76;100.00;99927.84;5102082;28;20468;-74
2023/06/10 06:07:17;;;;;;;11.60;6.97;;;;;;;18.79;100.00;99929.09;5110870;28;20032;-73
2023/06/10 06:09:42;;;;;;;10.43;7.25;;;;;;;18.83;100.00;99927.19;5098071;28;20036;-73
2023/06/10 06:12:08;;;;;;;11.70;7.35;;;;;;;18.87;100.00;99923.28;5114568;28;20476;-74
2023/06/10 06:14:37;;;;;;;11.13;7.35;;;;;;;18.90;100.00;99919.75;5103979;28;20024;-73
2023/06/10 06:17:02;;;;;;;13.00;9.20;;;;;;;18.95;100.00;99922.28;5079530;28;20115;-74
2023/06/10 06:19:28;;;;;;;10.23;8.07;;;;;;;18.98;100.00;99924.34;5097821;28;20052;-73
2023/06/10 06:21:53;;;;;;;11.90;8.35;;;;;;;19.03;100.00;99934.53;5106110;28;20023;-73
2023/06/10 06:24:19;;;;;;;12.63;8.10;;;;;;;19.06;100.00;99930.97;5103157;28;20020;-73
2023/06/10 06:26:45;;;;;;;12.55;8.55;;;;;;;19.10;100.00;99933.88;5097958;28;20039;-73
2023/06/10 06:29:10;;;;;;;10.43;7.93;;;;;;;19.19;100.00;99942.94;5111871;28;20482;-73
2023/06/10 06:31:36;;;;;;;15.27;9.55;;;;;;;19.26;100.00;99937.47;5109209;28;20028;-73
2023/06/10 06:34:01;;;;;;;11.88;8.43;;;;;;;19.29;100.00;99931.13;5116398;28;20027;-73
2023/06/10 06:36:27;;;;;;;13.90;11.02;;;;;;;19.38;100.00;99934.53;5097830;28;20086;-73
2023/06/10 06:38:52;;;;;;;16.23;10.40;;;;;;;19.43;100.00;99937.06;5111023;28;20031;-73
2023/06/10 06:41:18;;;;;;;12.77;9.52;;;;;;;19.49;100.00;99937.59;5097699;28;20032;-73
2023/06/10 06:43:43;;;;;;;15.05;10.27;;;;;;;19.57;100.00;99941.38;5097457;28;20388;-73
2023/06/10 06:46:09;;;;;;;11.27;9.15;;;;;;;19.60;100.00;99935.81;5067199;28;20106;-74
2023/06/10 06:48:35;;;;;;;16.27;9.90;;;;;;;19.64;100.00;99938.75;5079459;28;20513;-73
2023/06/10 06:51:00;;;;;;;14.52;9.25;;;;;;;19.67;100.00;99954.94;5097573;28;20032;-73
2023/06/10 06:53:26;;;;;;;11.10;8.75;;;;;;;19.69;100.00;99943.28;5097396;28;20028;-74
2023/06/10 06:55:51;;;;;;;12.60;9.07;;;;;;;19.72;100.00;99943.34;5097537;28;20035;-73
2023/06/10 06:58:17;;;;;;;12.65;8.38;;;;;;;19.77;100.00;99943.06;5097369;28;20028;-74
2023/06/10 07:00:42;;;;;;;10.43;8.60;;;;;;;19.81;100.00;99946.78;5098892;28;20059;-73
2023/06/10 07:03:08;;;;;;;12.63;8.30;;;;;;;19.82;100.00;99948.41;5109102;28;20032;-73
2023/06/10 07:05:33;;;;;;;11.95;8.77;;;;;;;19.85;100.00;99958.94;5086055;28;20032;-74
2023/06/10 07:07:58;;;;;;;15.88;11.60;;;;;;;19.90;100.00;99955.00;5104416;28;20396;-73
2023/06/10 07:10:24;;;;;;;9.95;8.95;;;;;;;19.93;100.00;99961.91;5099348;28;20032;-73
2023/06/10 07:12:50;;;;;;;10.90;8.95;;;;;;;19.95;100.00;99959.53;5099564;28;20103;-73
2023/06/10 07:15:15;;;;;;;13.90;10.25;;;;;;;19.99;100.00;99966.06;5097273;28;20042;-73
2023/06/10 07:17:41;;;;;;;16.88;12.57;;;;;;;20.04;100.00;99968.59;5097352;28;20035;-74
2023/06/10 07:20:07;;;;;;;16.00;11.98;;;;;;;20.07;100.00;99970.66;5097204;28;20036;-73
2023/06/10 07:22:32;;;;;;;15.15;12.82;;;;;;;20.11;100.00;99968.72;5110699;28;20101;-74
2023/06/10 07:24:58;;;;;;;19.80;13.73;;;;;;;20.14;100.00;99979.25;5099869;28;20028;-74
2023/06/10 07:27:23;;;;;;;14.13;12.63;;;;;;;20.16;100.00;99982.50;5110750;28;20039;-74
2023/06/10 07:29:49;;;;;;;17.08;12.43;;;;;;;20.18;100.00;99988.59;5098361;28;20099;-73
2023/06/10 07:32:14;;;;;;;16.10;13.07;;;;;;;20.21;100.00;99987.03;5108846;28;20038;-73
2023/06/10 07:34:40;;;;;;;22.88;17.35;;;;;;;20.23;100.00;99991.13;5088320;28;20028;-73
2023/06/10 07:37:05;;;;;;;19.45;14.95;;;;;;;20.25;100.00;100002.00;5107747;28;20484;-74
2023/06/10 07:39:31;;;;;;;17.73;14.10;;;;;;;20.25;100.00;100002.84;5104020;28;20106;-74
2023/06/10 07:41:57;;;;;;;18.02;14.38;;;;;;;20.24;100.00;99998.38;5110674;28;20023;-74
2023/06/10 07:44:23;;;;;;;17.15;15.13;;;;;;;20.25;100.00;100005.69;5096986;28;20028;-73
2023/06/10 07:46:48;;;;;;;24.67;19.25;;;;;;;20.25;100.00;100010.47;5099725;28;20052;-74
2023/06/10 07:49:14;;;;;;;22.83;15.35;;;;;;;20.26;100.00;100014.94;5100794;28;20544;-73
2023/06/10 07:51:39;;;;;;;26.50;18.90;;;;;;;20.26;100.00;100012.94;5082537;28;20476;-73
2023/06/10 07:54:05;;;;;;;21.17;14.98;;;;;;;20.25;100.00;100016.13;5078404;28;20024;-73
2023/06/10 07:56:31;;;;;;;18.67;13.75;;;;;;;20.25;100.00;100019.78;5101432;28;20476;-74
2023/06/10 07:58:57;;;;;;;15.20;13.55;;;;;;;20.26;100.00;100024.22;5100554;28;20085;-74
2023/06/10 08:01:23;;;;;;;19.90;15.23;;;;;;;20.28;100.00;100024.66;5100087;28;20032;-73
2023/06/10 08:03:48;;;;;;;17.48;13.90;;;;;;;20.28;100.00;100021.84;5104366;28;20091;-73
2023/06/10 08:06:14;;;;;;;22.50;16.83;;;;;;;20.30;100.00;100030.72;5112510;28;20494;-73
2023/06/10 08:08:43;;;;;;;22.08;14.77;;;;;;;20.34;100.00;100029.97;5101637;28;20058;-73
2023/06/10 08:11:12;;;;;;;17.08;13.30;;;;;;;20.35;100.00;100028.81;5108833;28;20035;-73
2023/06/10 08:13:38;;;;;;;17.75;13.05;;;;;;;20.37;100.00;100034.91;5114232;28;20055;-74
2023/06/10 08:16:03;;;;;;;16.85;13.00;;;;;;;20.39;100.00;100032.50;5099769;28;20032;-74
2023/06/10 08:18:29;;;;;;;19.63;13.50;;;;;;;20.40;100.00;100034.16;5100029;28;20036;-74
2023/06/10 08:20:55;;;;;;;22.05;16.40;;;;;;;20.41;100.00;100038.59;5100030;28;20036;-74
2023/06/10 08:23:20;;;;;;;19.73;14.43;;;;;;;20.44;100.00;100040.66;5113577;28;20036;-74
2023/06/10 08:25:46;;;;;;;22.33;14.88;;;;;;;20.46;100.00;100041.13;5082187;28;20028;-74
2023/06/10 08:28:11;;;;;;;16.30;13.57;;;;;;;20.47;100.00;100048.38;5105750;28;20035;-74
2023/06/10 08:30:37;;;;;;;17.08;14.07;;;;;;;20.49;100.00;100043.19;5112593;28;20027;-74
2023/06/10 08:33:02;;;;;;;16.48;13.77;;;;;;;20.52;100.00;100045.28;5112110;28;20020;-74
2023/06/10 08:35:28;;;;;;;16.98;12.88;;;;;;;20.55;100.00;100052.19;5111798;27;20055;-74
2023/06/10 08:37:53;;;;;;;13.55;11.57;;;;;;;20.54;100.00;100051.41;5113542;28;20027;-74
2023/06/10 08:40:19;;;;;;;17.67;13.05;;;;;;;20.56;100.00;100051.84;5087524;28;20055;-74
2023/06/10 08:43:05;;;;;;;17.35;14.02;;;;;;;20.60;100.00;100047.06;5081493;28;20032;-74
2023/06/10 08:45:32;;;;;;;28.90;20.25;;;;;;;20.60;100.00;100052.72;5067554;28;20055;-74
2023/06/10 08:47:57;;;;;;;25.58;17.27;;;;;;;20.58;100.00;100049.44;5092560;28;20045;-74
2023/06/10 08:50:23;;;;;;;20.77;15.95;;;;;;;20.61;100.00;100051.50;5099643;28;20055;-74
2023/06/10 08:52:50;;;;;;;22.48;16.77;;;;;;;20.59;100.00;100039.81;5109029;28;20027;-74
2023/06/10 08:55:19;;;;;;;24.08;20.52;;;;;;;20.62;100.00;100049.53;5084546;28;20376;-74
2023/06/10 08:57:45;;;;;;;19.50;15.15;;;;;;;20.63;100.00;100059.63;5081136;28;20039;-74
2023/06/10 09:00:12;;;;;;;23.60;18.13;;;;;;;20.64;100.00;100058.41;5078151;28;20028;-74
2023/06/10 09:02:37;;;;;;;21.40;16.67;;;;;;;20.65;100.00;100058.06;5081393;28;20083;-74
2023/06/10 09:05:03;;;;;;;18.25;13.95;;;;;;;20.65;100.00;100054.44;5087571;28;20439;-73
2023/06/10 09:07:31;;;;;;;31.67;21.02;;;;;;;20.68;100.00;100062.94;5110614;28;20031;-74
2023/06/10 09:09:56;;;;;;;24.80;18.60;;;;;;;20.64;100.00;100056.41;5083805;28;20039;-74
2023/06/10 09:12:22;;;;;;;30.63;21.80;;;;;;;20.68;100.00;100057.31;5080904;28;20427;-74
2023/06/10 09:14:47;;;;;;;26.65;18.30;;;;;;;20.73;100.00;100059.03;5083512;28;20510;-74
2023/06/10 09:17:13;;;;;;;21.10;15.98;;;;;;;20.74;100.00;100058.63;5109586;28;20024;-74
2023/06/10 09:19:38;;;;;;;22.60;16.90;;;;;;;20.79;100.00;100057.53;5080859;28;20047;-73
2023/06/10 09:22:04;;;;;;;21.63;18.27;;;;;;;20.83;100.00;100061.22;5090446;28;20501;-73
2023/06/10 09:24:29;;;;;;;18.42;15.60;;;;;;;20.86;100.00;100068.91;5105671;28;20051;-73
2023/06/10 09:27:06;;;;;;;25.23;15.55;;;;;;;20.93;100.00;100069.06;5091314;28;20036;-73
2023/06/10 09:29:52;;;;;;;19.08;14.93;;;;;;;21.00;100.00;100070.38;5115849;28;20082;-73
2023/06/10 09:32:18;;;;;;;15.23;12.93;;;;;;;21.07;100.00;100074.16;5094562;28;20039;-73
2023/06/10 09:34:44;;;;;;;14.82;12.93;;;;;;;21.13;100.00;100083.94;5111753;28;20431;-73
2023/06/10 09:37:12;;;;;;;16.50;12.50;;;;;;;21.19;100.00;100087.28;5101120;28;20028;-73
2023/06/10 09:39:37;;;;;;;24.73;16.73;;;;;;;21.26;100.00;100083.78;5111241;28;20096;-73
2023/06/10 09:42:15;;;;;;;14.32;11.77;;;;;;;21.30;100.00;100084.63;5080475;28;20419;-73
2023/06/10 09:44:40;;;;;;;26.90;20.67;;;;;;;21.36;100.00;100085.94;5099433;28;20023;-73
2023/06/10 09:47:06;;;;;;;26.30;16.77;;;;;;;21.41;100.00;100091.31;5101419;28;20039;-73
2023/06/10 09:49:31;;;;;;;27.10;20.73;;;;;;;21.47;100.00;100103.09;5098465;28;20036;-73
2023/06/10 09:51:57;;;;;;;25.05;20.20;;;;;;;21.51;100.00;100093.50;5080169;28;20032;-73
2023/06/10 09:54:22;;;;;;;21.25;18.27;;;;;;;21.56;100.00;100087.53;5098515;28;20420;-73
2023/06/10 09:56:50;;;;;;;25.52;17.88;;;;;;;21.59;100.00;100092.44;5098438;28;20412;-73
2023/06/10 09:59:15;;;;;;;23.23;18.90;;;;;;;21.64;100.00;100085.63;5080367;28;20140;-73
2023/06/10 10:01:41;;;;;;;16.98;15.07;;;;;;;21.68;100.00;100091.34;5079776;28;20036;-74
2023/06/10 10:04:06;;;;;;;30.70;21.85;;;;;;;21.72;100.00;100086.56;5102081;28;20032;-73
2023/06/10 10:06:32;;;;;;;22.83;18.65;;;;;;;21.79;100.00;100095.16;5111788;28;20032;-73
2023/06/10 10:08:57;;;;;;;22.42;18.00;;;;;;;21.86;100.00;100098.09;5079563;28;20032;-73
2023/06/10 10:11:25;;;;;;;18.10;14.32;;;;;;;21.93;100.00;100092.53;5095657;28;20024;-73
2023/06/10 10:13:51;;;;;;;25.13;20.70;;;;;;;22.08;100.00;100094.38;5079890;28;20032;-73
2023/06/10 10:16:19;;;;;;;18.75;14.70;;;;;;;22.19;100.00;100091.72;5079381;28;20039;-73
2023/06/10 10:19:07;;;;;;;23.45;15.27;;;;;;;22.33;100.00;100088.28;5097995;28;20035;-74
2023/06/10 10:21:35;;;;;;;16.40;12.60;;;;;;;22.44;100.00;100092.06;5084785;28;20103;-73
2023/06/10 10:24:14;;;;;;;14.35;11.70;;;;;;;22.57;100.00;100092.63;5100181;28;20035;-72
2023/06/10 10:26:39;;;;;;;22.30;18.27;;;;;;;22.66;100.00;100093.13;5100818;28;20088;-73
2023/06/10 10:29:08;;;;;;;21.25;17.70;;;;;;;22.76;100.00;100085.94;5083018;28;20043;-72
2023/06/10 10:31:35;;;;;;;16.48;14.13;;;;;;;22.84;100.00;100084.84;5115035;27;20051;-68
2023/06/10 10:34:02;;;;;;;16.98;12.88;;;;;;;22.90;100.00;100085.28;5109583;28;20055;-68
2023/06/10 10:36:27;;;;;;;19.60;15.27;;;;;;;22.95;100.00;100088.63;5074213;28;20082;-68
2023/06/10 10:38:53;;;;;;;23.38;19.38;;;;;;;22.94;100.00;100084.13;5082564;28;20035;-68
2023/06/10 10:41:19;;;;;;;24.88;20.67;;;;;;;22.99;100.00;100091.50;5061385;28;20051;-67
2023/06/10 10:43:44;;;;;;;23.85;18.60;;;;;;;23.03;100.00;100092.34;5075369;28;20117;-67
2023/06/10 10:46:14;;;;;;;23.52;18.92;;;;;;;23.05;100.00;100089.94;5074591;28;20427;-67
2023/06/10 10:48:41;;;;;;;20.38;14.60;;;;;;;23.08;100.00;100092.00;5088236;28;20094;-68
2023/06/10 10:51:07;;;;;;;19.60;17.15;;;;;;;23.10;100.00;100089.59;5067063;28;20054;-68
2023/06/10 10:53:32;;;;;;;20.10;15.10;;;;;;;23.16;100.00;100090.88;5083370;28;20104;-68
2023/06/10 10:56:04;;;;;;;18.00;13.77;;;;;;;23.22;100.00;100096.19;5079321;28;20032;-68
2023/06/10 10:58:30;;;;;;;18.83;14.13;;;;;;;23.25;100.00;100099.03;5061580;28;20036;-68
2023/06/10 11:00:55;;;;;;;22.05;18.20;;;;;;;23.20;100.00;100094.53;5063269;28;20039;-68
2023/06/10 11:03:21;;;;;;;22.50;15.88;;;;;;;23.26;100.00;100100.66;5097461;28;20495;-68
2023/06/10 11:05:50;;;;;;;21.65;17.40;;;;;;;23.25;100.00;100101.06;5058114;28;20093;-67
2023/06/10 11:08:28;;;;;;;21.35;16.40;;;;;;;23.30;100.00;100095.84;5083696;28;20424;-68
2023/06/10 11:10:53;;;;;;;18.33;14.63;;;;;;;23.31;100.00;100088.97;5090399;28;20478;-68
2023/06/10 11:13:20;;;;;;;28.58;21.45;;;;;;;23.33;100.00;100094.25;5099478;28;20031;-68